Alghero, Italy

1:44 PM CEST on September 02, 2015 (GMT +0200)
Fertilia | | Change Station
CLOSE
Current Station
Airport
Location: Alghero,
Elevation: 75 ft
Nearby Weather Stations

Elev 75 ft 40.63 °N, 8.29 °E | Updated 24 minutes ago

Clear
Clear
86 °F
Feels Like 86 °F
N
10
Wind Variable Wind from West

Today
High -- | Low -- °F
--% Chance of Precip.
Yesterday
High -- | Low -- °F
Precip. -- in
6:54 AM 7:58 PM
Waning Gibbous, 81% visible
Pressure 29.98 in
Visibility -9999.0 miles
Clouds
Heat Index 86 °F
Dew Point 61 °F
Humidity 43%
Rainfall 0.00 in
Snow Depth Not available.
UV Not available.
Pollen Not available.
Air Quality Not available.
Flu Activity Not available.
METAR LIEA 021120Z 27009KT 250V320 CAVOK 30/16 Q1015
Pressure 29.98 in
Visibility -9999.0 miles
Clouds
Heat Index 86 °F
Dew Point 61 °F
Humidity 43%
Rainfall 0.00 in
Snow Depth Not available.
UV Not available.
Pollen Not available.
Air Quality Not available.
Flu Activity Not available.
METAR LIEA 021120Z 27009KT 250V320 CAVOK 30/16 Q1015

10-Day Weather Forecast

×

Almanac

Astronomy

Sep. 02, 2015 Rise Set
Actual Time
Civil Twilight
Nautical Twilight
Astronomical Twilight
Moon
Length of Visible Light
Length of Day
Tomorrow will be .
, % of the Moon is Illuminated

Today's Extremes

Country Highs Country Lows

Community

WunderPhotos

Upload Photos

1,851,736 photos uploaded!

WunderBlogs® & News

Nearby

Air Quality

  Air Quality AQ Index Pollutant
Not available.

Snow Depth

Station Depth Elevation

Earthquake Activity

City Distance Mag. Time & Date
Minimum magnitude displayed is 2.5.

Coastal Water Temperatures

Place Temperature

Stations

Nearby Weather Stations

Station Location Temp. Windchill Dew Point Humidity Wind Precip. Elev Updated Type